Terminal Aerodrome Forecast
Issued by NWS

Home | Current Version | Previous Version | Text Only | Print | Product List | Glossary On
Versions: 1 2 3 4 5 6 7 8 9 10 11 12 13 14 15 16 17 18 19
000
FTUS43 KGRR 251740
TAFMKG
TAF
KMKG 251740Z 2518/2618 14011G19KT P6SM SCT040 BKN200
     FM260000 14010KT P6SM -SHRA OVC035
     FM260200 16014G25KT 5SM SHRA VCTS OVC025CB
     FM260400 17015G25KT P6SM OVC025
     FM260600 25010KT P6SM -SHRA SCT007 OVC015
     FM261000 25012G21KT P6SM VCSH BKN035
     FM261200 26012G20KT P6SM OVC250=

USA.gov is the U.S. government's official web portal to all federal, state and local government web resources and services.